Time;durP1;ratioP1;P1;durP2;ratioP2;P2;SDS_P1;SDS_P2;PMS_P1;PMS_P2;Temp;Humidity;BMP_temperature;BMP_pressure;BME280_temperature;BME280_humidity;BME280_pressure;Samples;Min_cycle;Max_cycle;Signal;HPM_P1;HPM_P2
2022/01/04 00:01:38;;;;;;;17.27;7.47;;;;;;;9.86;66.05;98913.66;5004556;28;20187;-72
2022/01/04 00:04:05;;;;;;;18.58;8.18;;;;;;;9.85;66.08;98919.06;5006374;28;20489;-71
2022/01/04 00:06:32;;;;;;;15.70;7.40;;;;;;;9.83;66.10;98915.72;5005272;28;20042;-71
2022/01/04 00:09:01;;;;;;;21.33;8.00;;;;;;;9.84;66.17;98918.22;5004367;28;20042;-71
2022/01/04 00:11:44;;;;;;;17.95;7.63;;;;;;;9.86;66.05;98916.28;5005358;28;20042;-72
2022/01/04 00:14:12;;;;;;;15.88;8.48;;;;;;;9.87;66.05;98922.41;5003541;28;20046;-71
2022/01/04 00:16:39;;;;;;;17.20;7.95;;;;;;;9.82;66.11;98919.34;5004252;28;20072;-71
2022/01/04 00:19:06;;;;;;;14.30;7.45;;;;;;;9.77;66.00;98919.75;5005108;28;20145;-72
2022/01/04 00:21:33;;;;;;;21.13;8.88;;;;;;;9.72;66.11;98914.91;5002345;28;20060;-72
2022/01/04 00:24:01;;;;;;;13.18;7.30;;;;;;;9.65;66.21;98905.91;5005229;28;20125;-72
2022/01/04 00:26:28;;;;;;;14.80;6.80;;;;;;;9.57;66.46;98908.38;5005580;28;20050;-72
2022/01/04 00:28:55;;;;;;;18.40;8.38;;;;;;;9.48;66.21;98902.13;5003355;28;20126;-72
2022/01/04 00:31:23;;;;;;;12.68;7.07;;;;;;;9.35;66.48;98902.38;5004129;28;20569;-74
2022/01/04 00:33:51;;;;;;;16.92;7.50;;;;;;;9.21;66.61;98909.88;5004036;28;20053;-72
2022/01/04 00:36:18;;;;;;;13.98;7.22;;;;;;;9.09;66.87;98898.59;5003572;28;20060;-73
2022/01/04 00:38:45;;;;;;;15.43;7.80;;;;;;;8.98;66.99;98900.38;5005110;28;20405;-73
2022/01/04 00:41:12;;;;;;;14.95;7.85;;;;;;;8.89;67.02;98909.06;5006378;28;20496;-75
2022/01/04 00:43:39;;;;;;;21.02;8.93;;;;;;;8.80;67.06;98900.19;5004723;28;20041;-74
2022/01/04 00:46:07;;;;;;;16.70;7.05;;;;;;;8.72;67.05;98905.28;5005496;28;20050;-74
2022/01/04 00:51:19;;;;;;;15.68;7.75;;;;;;;8.56;67.03;98903.13;5024910;28;20052;-72
2022/01/04 00:53:46;;;;;;;19.33;8.48;;;;;;;8.47;67.33;98905.72;5027528;28;20054;-72
2022/01/04 00:56:13;;;;;;;18.50;7.53;;;;;;;8.38;67.24;98905.50;5025783;28;20049;-70
2022/01/04 00:58:40;;;;;;;14.75;7.75;;;;;;;8.31;67.31;98904.34;5024273;28;20140;-72
2022/01/04 01:01:07;;;;;;;17.70;8.50;;;;;;;8.25;67.33;98902.25;5025177;28;20046;-74
2022/01/04 01:03:35;;;;;;;13.70;7.03;;;;;;;8.17;67.22;98905.50;5024340;28;20053;-74
2022/01/04 01:06:04;;;;;;;17.33;8.93;;;;;;;8.10;67.32;98901.72;5023833;28;20073;-72
2022/01/04 01:08:32;;;;;;;14.43;7.93;;;;;;;8.02;67.32;98897.13;5025420;28;20054;-72
2022/01/04 01:10:58;;;;;;;22.08;9.40;;;;;;;7.94;67.36;98885.56;5023669;28;20128;-73
2022/01/04 01:13:25;;;;;;;22.00;9.23;;;;;;;7.89;67.42;98885.13;5023213;28;20083;-72
2022/01/04 01:15:53;;;;;;;13.80;8.43;;;;;;;7.81;67.45;98881.34;5025103;28;20045;-72
2022/01/04 01:18:20;;;;;;;21.95;10.35;;;;;;;7.76;67.33;98874.78;5023456;28;20084;-72
2022/01/04 01:20:51;;;;;;;19.23;8.95;;;;;;;7.72;67.56;98873.38;5024678;28;20661;-73
2022/01/04 01:23:19;;;;;;;16.13;9.07;;;;;;;7.65;67.45;98867.78;5024521;28;20099;-71
2022/01/04 01:25:46;;;;;;;18.58;7.00;;;;;;;7.61;67.71;98866.38;5026828;28;20076;-72
2022/01/04 01:28:14;;;;;;;18.42;7.40;;;;;;;7.58;67.58;98867.47;5037014;28;20072;-70
2022/01/04 01:30:42;;;;;;;16.33;8.38;;;;;;;7.56;67.67;98860.66;5053304;28;20029;-71
2022/01/04 01:33:09;;;;;;;15.05;7.53;;;;;;;7.50;67.65;98851.50;5064073;28;20072;-71
2022/01/04 01:35:37;;;;;;;18.23;7.78;;;;;;;7.45;67.71;98856.28;5064789;28;20060;-71
2022/01/04 01:38:05;;;;;;;16.10;7.35;;;;;;;7.40;67.70;98846.19;5063952;28;20098;-72
2022/01/04 01:40:33;;;;;;;17.25;7.40;;;;;;;7.38;67.81;98842.00;5062677;28;20080;-73
2022/01/04 01:43:00;;;;;;;13.45;6.85;;;;;;;7.32;67.77;98838.09;5063455;28;20178;-71
2022/01/04 01:45:27;;;;;;;17.40;6.82;;;;;;;7.29;67.80;98843.56;5058540;28;20107;-71
2022/01/04 01:47:54;;;;;;;12.70;6.80;;;;;;;7.26;68.01;98835.97;5046634;28;20599;-71
2022/01/04 01:50:22;;;;;;;19.08;7.38;;;;;;;7.22;67.93;98842.41;5048434;28;20392;-73
2022/01/04 01:52:51;;;;;;;15.93;7.22;;;;;;;7.19;67.93;98840.06;5028032;28;20051;-73
2022/01/04 01:55:24;;;;;;;20.40;6.68;;;;;;;7.17;67.91;98836.72;5044306;28;20044;-71
2022/01/04 01:57:52;;;;;;;22.73;8.98;;;;;;;7.13;67.87;98835.28;5045747;28;20161;-73
2022/01/04 02:00:23;;;;;;;13.50;7.15;;;;;;;7.08;67.94;98838.28;5048090;28;20053;-73
2022/01/04 02:02:49;;;;;;;18.75;7.28;;;;;;;7.04;67.98;98837.72;5049685;28;20045;-71
2022/01/04 02:05:17;;;;;;;17.65;8.05;;;;;;;7.02;67.90;98838.78;5030397;28;20052;-70
2022/01/04 02:07:45;;;;;;;18.08;7.22;;;;;;;6.97;67.90;98839.16;5045333;28;20489;-71
2022/01/04 02:10:13;;;;;;;21.23;8.23;;;;;;;6.97;67.89;98836.53;5043227;28;20064;-70
2022/01/04 02:12:46;;;;;;;14.50;7.18;;;;;;;6.95;67.92;98827.94;5045481;28;20239;-70
2022/01/04 02:15:15;;;;;;;15.32;6.32;;;;;;;6.94;67.99;98834.16;5042839;28;20049;-71
2022/01/04 02:17:42;;;;;;;15.75;7.90;;;;;;;6.91;67.70;98826.50;5042939;28;20067;-70
2022/01/04 02:20:12;;;;;;;12.57;8.00;;;;;;;6.93;68.13;98831.63;5043341;28;20416;-72
2022/01/04 02:22:39;;;;;;;15.13;7.60;;;;;;;6.96;68.10;98834.84;5040753;28;20081;-70
2022/01/04 02:25:07;;;;;;;19.05;7.45;;;;;;;7.07;68.08;98831.38;5043925;28;20188;-71
2022/01/04 02:27:35;;;;;;;18.90;7.78;;;;;;;7.24;67.92;98828.22;5043863;28;20408;-70
2022/01/04 02:30:04;;;;;;;18.13;8.10;;;;;;;7.39;67.59;98826.13;5042393;28;20124;-71
2022/01/04 02:32:31;;;;;;;15.30;7.20;;;;;;;7.54;67.29;98823.19;5043224;28;20055;-71
2022/01/04 02:34:59;;;;;;;18.52;8.45;;;;;;;7.62;67.18;98815.50;5043347;28;20138;-73
2022/01/04 02:37:30;;;;;;;21.00;8.95;;;;;;;7.63;67.22;98817.16;5042846;28;20047;-71
2022/01/04 02:39:57;;;;;;;17.65;8.70;;;;;;;7.59;67.38;98818.38;5043094;28;20057;-72
2022/01/04 02:42:24;;;;;;;14.20;8.30;;;;;;;7.59;67.59;98811.31;5043596;28;20049;-72
2022/01/04 02:44:51;;;;;;;18.38;8.15;;;;;;;7.65;67.56;98816.09;5043159;28;20064;-74
2022/01/04 02:47:19;;;;;;;16.13;7.25;;;;;;;7.73;67.54;98815.44;5043797;28;20136;-72
2022/01/04 02:49:46;;;;;;;12.32;7.07;;;;;;;7.83;67.53;98816.34;5042601;28;20057;-70
2022/01/04 02:52:13;;;;;;;18.77;8.05;;;;;;;7.87;67.22;98818.69;5040616;28;20059;-70
2022/01/04 02:54:41;;;;;;;21.23;7.18;;;;;;;7.85;67.44;98810.97;5043322;28;20048;-71
2022/01/04 02:57:08;;;;;;;13.65;6.40;;;;;;;7.90;67.55;98800.88;5041798;28;20602;-72
2022/01/04 02:59:36;;;;;;;17.27;7.80;;;;;;;7.98;67.33;98800.22;5042219;28;20131;-71
2022/01/04 03:02:03;;;;;;;17.17;6.78;;;;;;;8.07;67.29;98788.06;5043115;28;20045;-71
2022/01/04 03:04:30;;;;;;;11.73;6.65;;;;;;;8.14;66.98;98789.22;5042438;28;20132;-73
2022/01/04 03:06:57;;;;;;;11.85;7.10;;;;;;;8.18;66.97;98780.94;5042814;28;20468;-75
2022/01/04 03:09:24;;;;;;;13.63;7.40;;;;;;;8.13;66.92;98780.50;5044588;28;20064;-75
2022/01/04 03:11:52;;;;;;;15.60;6.70;;;;;;;8.04;67.01;98778.66;5042696;28;20056;-73
2022/01/04 03:14:19;;;;;;;13.48;7.03;;;;;;;7.95;67.23;98771.56;5034568;28;20045;-70
2022/01/04 03:16:47;;;;;;;13.05;6.30;;;;;;;7.90;67.34;98771.13;5005355;28;20413;-74
2022/01/04 03:19:14;;;;;;;14.75;8.35;;;;;;;7.89;67.53;98790.50;5022913;28;20049;-73
2022/01/04 03:21:42;;;;;;;16.23;8.35;;;;;;;7.97;67.13;98778.34;5023715;28;20384;-73
2022/01/04 03:24:12;;;;;;;17.17;7.22;;;;;;;8.13;66.87;98777.88;5024050;28;20462;-72
2022/01/04 03:26:39;;;;;;;14.80;7.70;;;;;;;8.20;66.81;98767.66;5022946;28;20041;-75
2022/01/04 03:29:09;;;;;;;14.95;6.47;;;;;;;8.25;66.58;98760.22;5021780;28;20115;-72
2022/01/04 03:31:36;;;;;;;13.93;6.30;;;;;;;8.24;66.60;98759.34;5023310;28;20060;-73
2022/01/04 03:34:04;;;;;;;13.05;7.20;;;;;;;8.18;66.70;98754.66;5022568;28;20059;-73
2022/01/04 03:36:31;;;;;;;16.52;7.47;;;;;;;8.09;66.65;98752.00;5023227;28;20658;-71
2022/01/04 03:38:59;;;;;;;10.82;5.97;;;;;;;8.00;66.86;98745.72;5022855;28;20057;-71
2022/01/04 03:41:27;;;;;;;14.40;7.07;;;;;;;7.95;67.03;98742.66;5021527;28;20068;-71
2022/01/04 03:43:55;;;;;;;14.95;8.20;;;;;;;7.94;67.15;98746.22;5022604;28;20046;-73
2022/01/04 03:46:23;;;;;;;11.43;6.32;;;;;;;8.01;67.13;98739.47;5022430;28;20049;-73
2022/01/04 03:48:51;;;;;;;11.00;5.82;;;;;;;8.08;66.85;98745.88;5022125;28;20050;-73
2022/01/04 03:51:18;;;;;;;9.25;6.00;;;;;;;8.15;66.83;98743.56;5022410;28;20069;-72
2022/01/04 03:53:45;;;;;;;16.27;6.85;;;;;;;8.16;66.61;98740.78;5020431;28;20054;-70
2022/01/04 03:56:12;;;;;;;12.85;7.03;;;;;;;8.20;66.60;98741.38;5022020;28;20114;-69
2022/01/04 03:58:39;;;;;;;14.02;7.55;;;;;;;8.21;66.45;98738.59;5022544;28;20045;-71
2022/01/04 04:01:06;;;;;;;16.40;7.32;;;;;;;8.26;66.34;98740.00;5021692;28;20400;-73
2022/01/04 04:03:35;;;;;;;11.45;6.75;;;;;;;8.24;66.34;98726.97;5021539;28;20053;-72
2022/01/04 04:06:02;;;;;;;17.90;7.68;;;;;;;8.14;66.65;98732.22;5021855;28;20046;-72
2022/01/04 04:08:29;;;;;;;14.40;7.55;;;;;;;8.03;66.67;98722.63;5022947;28;20382;-72
2022/01/04 04:10:56;;;;;;;11.48;7.93;;;;;;;7.95;66.89;98732.13;5025205;28;20050;-72
2022/01/04 04:13:23;;;;;;;17.30;8.13;;;;;;;7.97;66.82;98728.41;5026366;28;20050;-69
2022/01/04 04:15:51;;;;;;;15.10;7.97;;;;;;;8.03;66.69;98730.50;5024766;28;20045;-73
2022/01/04 04:18:18;;;;;;;13.13;7.00;;;;;;;8.03;66.60;98724.41;5025942;28;20166;-75
2022/01/04 04:20:47;;;;;;;11.25;6.55;;;;;;;8.03;66.55;98717.38;5026546;28;20132;-73
2022/01/04 04:23:14;;;;;;;14.20;5.90;;;;;;;8.03;66.54;98719.13;5023833;28;20045;-74
2022/01/04 04:25:41;;;;;;;14.85;6.45;;;;;;;8.05;66.66;98719.88;5027075;28;20045;-75
2022/01/04 04:28:09;;;;;;;13.23;6.38;;;;;;;8.12;66.41;98722.78;5027012;28;20053;-74
2022/01/04 04:30:36;;;;;;;13.68;6.57;;;;;;;8.15;66.29;98723.34;5025192;28;20053;-74
2022/01/04 04:33:04;;;;;;;12.98;7.63;;;;;;;8.21;66.25;98722.81;5026594;28;20053;-74
2022/01/04 04:35:33;;;;;;;13.20;6.95;;;;;;;8.28;66.14;98717.00;4977509;28;20258;-75
2022/01/04 04:38:03;;;;;;;19.83;7.18;;;;;;;8.31;66.15;98735.16;5026446;28;20037;-72
2022/01/04 04:40:31;;;;;;;11.50;6.95;;;;;;;8.27;66.01;98736.41;5026078;28;20128;-74
2022/01/04 04:42:58;;;;;;;13.63;7.90;;;;;;;8.23;66.12;98726.16;5026868;28;20085;-76
2022/01/04 04:45:25;;;;;;;13.57;6.75;;;;;;;8.19;66.17;98718.66;5025510;28;20408;-75
2022/01/04 04:47:52;;;;;;;11.98;7.72;;;;;;;8.18;66.15;98730.16;5027340;28;20125;-72
2022/01/04 04:50:19;;;;;;;15.55;7.20;;;;;;;8.17;66.20;98724.03;5026880;28;20053;-74
2022/01/04 04:52:46;;;;;;;14.38;9.02;;;;;;;8.23;66.00;98725.31;5025903;28;20053;-74
2022/01/04 04:55:14;;;;;;;12.32;6.80;;;;;;;8.21;66.20;98712.31;5026877;28;20626;-73
2022/01/04 04:57:41;;;;;;;13.68;7.22;;;;;;;8.19;65.99;98703.72;5026407;28;20045;-76
2022/01/04 05:00:11;;;;;;;12.23;6.85;;;;;;;8.14;66.16;98699.81;5025792;28;20136;-74
2022/01/04 05:02:38;;;;;;;14.27;8.25;;;;;;;8.07;66.27;98702.16;5026543;28;20048;-72
2022/01/04 05:05:08;;;;;;;16.58;7.45;;;;;;;8.02;66.41;98693.81;5026030;28;20110;-73
2022/01/04 05:07:35;;;;;;;16.38;6.57;;;;;;;7.91;66.48;98692.13;5026360;28;20719;-74
2022/01/04 05:10:02;;;;;;;12.30;7.40;;;;;;;7.86;66.60;98683.81;5028073;28;20045;-74
2022/01/04 05:12:31;;;;;;;12.63;7.65;;;;;;;7.82;66.72;98685.88;5026264;28;20171;-71
2022/01/04 05:14:58;;;;;;;15.80;8.00;;;;;;;7.80;66.50;98682.53;5025736;28;20045;-74
2022/01/04 05:17:25;;;;;;;13.60;7.13;;;;;;;7.78;66.74;98679.22;5026226;28;20133;-73
2022/01/04 05:19:52;;;;;;;13.75;6.97;;;;;;;7.76;66.66;98682.94;5023872;28;20049;-72
2022/01/04 05:22:21;;;;;;;17.35;7.75;;;;;;;7.72;66.76;98674.47;5032221;28;20051;-71
2022/01/04 05:24:48;;;;;;;18.10;9.18;;;;;;;7.71;66.83;98669.38;5045690;28;20053;-70
2022/01/04 05:27:15;;;;;;;13.00;9.38;;;;;;;7.70;66.89;98679.03;5043925;28;20045;-70
2022/01/04 05:29:43;;;;;;;18.17;8.38;;;;;;;7.66;66.95;98677.63;5044830;28;20041;-69
2022/01/04 05:32:10;;;;;;;18.95;8.85;;;;;;;7.65;66.93;98671.56;5045360;28;20080;-69
2022/01/04 05:34:37;;;;;;;14.20;9.15;;;;;;;7.74;67.03;98667.31;5043714;28;20049;-71
2022/01/04 05:37:05;;;;;;;20.88;10.70;;;;;;;7.85;66.84;98667.22;5044734;28;20076;-71
2022/01/04 05:39:32;;;;;;;19.52;8.80;;;;;;;7.96;66.57;98660.16;5045880;28;20055;-71
2022/01/04 05:41:59;;;;;;;16.77;8.80;;;;;;;8.06;66.70;98660.22;5045513;28;20419;-69
2022/01/04 05:44:26;;;;;;;16.02;6.80;;;;;;;8.12;66.52;98660.50;5045144;28;20045;-69
2022/01/04 05:46:54;;;;;;;11.60;9.00;;;;;;;8.17;66.65;98655.66;5043577;28;20041;-70
2022/01/04 05:49:21;;;;;;;14.20;7.53;;;;;;;8.20;66.56;98655.41;5043975;28;20057;-73
2022/01/04 05:51:48;;;;;;;15.27;7.95;;;;;;;8.23;66.56;98662.19;5044159;28;20511;-72
2022/01/04 05:54:15;;;;;;;15.60;9.27;;;;;;;8.23;66.65;98664.84;5044281;28;20041;-72
2022/01/04 05:56:42;;;;;;;14.43;8.40;;;;;;;8.23;66.73;98657.75;5043866;28;20051;-71
2022/01/04 05:59:09;;;;;;;16.35;8.60;;;;;;;8.19;66.76;98661.63;5050805;28;20075;-74
2022/01/04 06:01:36;;;;;;;14.45;8.93;;;;;;;8.16;67.02;98651.38;5043990;28;20079;-69
2022/01/04 06:04:05;;;;;;;15.52;8.35;;;;;;;8.17;67.02;98657.47;5043718;28;20556;-74
2022/01/04 06:06:33;;;;;;;15.27;9.35;;;;;;;8.16;67.00;98651.38;5043713;28;20041;-70
2022/01/04 06:09:00;;;;;;;14.30;8.15;;;;;;;8.16;67.06;98653.19;5042875;28;20076;-71
2022/01/04 06:11:55;;;;;;;14.65;8.45;;;;;;;8.14;67.11;98648.06;5042206;28;20616;-72
2022/01/04 06:17:10;;;;;;;17.85;9.40;;;;;;;8.12;67.36;98643.88;5045579;28;20064;-70
2022/01/04 06:19:39;;;;;;;14.15;9.95;;;;;;;8.10;67.59;98646.66;4995765;28;20053;-70
2022/01/04 06:22:06;;;;;;;17.48;10.07;;;;;;;8.10;67.25;98641.38;5046810;28;20147;-75
2022/01/04 06:24:34;;;;;;;21.20;10.43;;;;;;;8.12;67.28;98650.00;5042813;28;20044;-74
2022/01/04 06:27:01;;;;;;;18.48;11.45;;;;;;;8.14;67.32;98642.81;5027064;28;20068;-71
2022/01/04 06:29:29;;;;;;;17.23;10.00;;;;;;;8.18;67.22;98638.09;5018049;28;20096;-69
2022/01/04 06:31:57;;;;;;;17.13;9.65;;;;;;;8.18;67.31;98638.09;5018078;28;20047;-74
2022/01/04 06:34:24;;;;;;;22.33;12.05;;;;;;;8.20;67.25;98641.41;5001599;28;20037;-67
2022/01/04 06:36:53;;;;;;;20.90;12.40;;;;;;;8.20;67.28;98638.78;5020071;28;20051;-69
2022/01/04 06:39:20;;;;;;;15.95;11.20;;;;;;;8.21;67.01;98633.41;5018341;28;20047;-70
2022/01/04 06:41:49;;;;;;;18.27;10.02;;;;;;;8.22;67.30;98624.53;5015664;28;20489;-71
2022/01/04 06:44:16;;;;;;;22.33;13.25;;;;;;;8.24;67.29;98633.09;5013086;28;20051;-70
2022/01/04 06:46:45;;;;;;;26.67;13.35;;;;;;;8.25;67.29;98636.59;5015750;28;20041;-71
2022/01/04 06:49:14;;;;;;;23.10;11.93;;;;;;;8.27;67.24;98631.19;5005775;28;20061;-72
2022/01/04 06:51:42;;;;;;;20.80;10.95;;;;;;;8.30;67.21;98636.16;4991768;28;20041;-72
2022/01/04 06:54:15;;;;;;;17.42;13.15;;;;;;;8.28;67.33;98638.09;4976116;28;20042;-74
2022/01/04 06:56:41;;;;;;;19.13;12.05;;;;;;;8.27;67.27;98636.47;4998601;28;20046;-72
2022/01/04 06:59:09;;;;;;;21.50;11.85;;;;;;;8.28;67.33;98631.03;4996247;28;20091;-71
2022/01/04 07:01:37;;;;;;;25.52;13.23;;;;;;;8.32;67.20;98627.19;4993741;28;20056;-75
2022/01/04 07:04:05;;;;;;;22.27;14.60;;;;;;;8.30;67.17;98626.50;4997359;28;20056;-73
2022/01/04 07:06:34;;;;;;;17.50;11.10;;;;;;;8.30;67.22;98629.13;5002294;28;20128;-74
2022/01/04 07:09:01;;;;;;;21.02;11.27;;;;;;;8.26;67.08;98621.63;4991547;28;20074;-75
2022/01/04 07:11:29;;;;;;;21.40;10.93;;;;;;;8.26;67.34;98625.09;5010643;28;20088;-74
2022/01/04 07:13:57;;;;;;;17.85;10.30;;;;;;;8.32;67.26;98626.34;5005849;28;20100;-79
2022/01/04 07:16:24;;;;;;;17.23;11.13;;;;;;;8.33;67.22;98615.69;5002318;28;20049;-75
2022/01/04 07:18:52;;;;;;;16.45;10.05;;;;;;;8.32;67.15;98623.69;5003038;28;20052;-77
2022/01/04 07:21:21;;;;;;;18.98;9.70;;;;;;;8.32;67.18;98608.78;4968124;28;20050;-73
2022/01/04 07:23:49;;;;;;;15.82;9.30;;;;;;;8.33;67.16;98605.16;4983297;28;20753;-75
2022/01/04 07:26:18;;;;;;;14.60;8.65;;;;;;;8.41;67.15;98599.22;4984060;28;20049;-76
2022/01/04 07:28:49;;;;;;;13.57;9.02;;;;;;;8.50;66.95;98593.16;5001558;28;20045;-76
2022/01/04 07:31:17;;;;;;;13.57;10.18;;;;;;;8.60;66.83;98591.34;5001392;28;20129;-73
2022/01/04 07:33:45;;;;;;;15.32;9.52;;;;;;;8.75;66.47;98583.00;5000027;28;20046;-72
2022/01/04 07:36:13;;;;;;;14.30;6.68;;;;;;;8.84;66.29;98587.47;4999509;28;20494;-72
2022/01/04 07:38:40;;;;;;;14.00;9.27;;;;;;;8.86;66.11;98580.25;4999316;28;20149;-71
2022/01/04 07:41:07;;;;;;;18.52;12.35;;;;;;;8.92;66.20;98571.78;4998791;28;20064;-72
2022/01/04 07:43:35;;;;;;;17.27;9.35;;;;;;;8.95;66.21;98578.56;4996528;28;20049;-71
2022/01/04 07:46:04;;;;;;;13.95;9.13;;;;;;;8.97;66.28;98582.72;5002862;28;20066;-73
2022/01/04 07:48:32;;;;;;;17.33;9.23;;;;;;;9.06;66.06;98580.22;5008049;28;20054;-72
2022/01/04 07:50:59;;;;;;;16.58;9.00;;;;;;;9.11;65.85;98570.91;5019020;28;20631;-72
2022/01/04 07:53:27;;;;;;;13.57;9.20;;;;;;;9.15;66.00;98563.53;5001968;28;20050;-73
2022/01/04 07:55:54;;;;;;;18.50;9.90;;;;;;;9.19;65.83;98559.63;5002666;28;20469;-74
2022/01/04 07:58:22;;;;;;;14.18;9.73;;;;;;;9.19;66.11;98564.91;5001729;28;20046;-77
2022/01/04 08:00:49;;;;;;;15.07;8.30;;;;;;;9.23;65.77;98558.38;5001815;28;20049;-73
2022/01/04 08:03:19;;;;;;;12.57;9.65;;;;;;;9.25;65.71;98559.06;5002960;28;20050;-76
2022/01/04 08:05:46;;;;;;;13.00;8.35;;;;;;;9.24;65.96;98544.25;5003176;28;20080;-75
2022/01/04 08:08:13;;;;;;;14.93;8.60;;;;;;;9.28;65.91;98542.13;5000579;28;20177;-73
2022/01/04 08:10:41;;;;;;;11.90;8.70;;;;;;;9.32;65.75;98539.06;5000931;28;20766;-72
2022/01/04 08:13:08;;;;;;;15.50;9.38;;;;;;;9.38;65.78;98532.38;5000125;28;20060;-73
2022/01/04 08:15:35;;;;;;;16.17;9.18;;;;;;;9.49;65.59;98526.06;5000896;28;20184;-74
2022/01/04 08:18:02;;;;;;;10.77;7.80;;;;;;;9.57;65.27;98526.19;5000234;28;20495;-74
2022/01/04 08:20:30;;;;;;;15.50;8.35;;;;;;;9.64;65.33;98511.44;4998263;28;20049;-72
2022/01/04 08:22:59;;;;;;;10.43;8.05;;;;;;;9.63;65.32;98509.75;4999329;28;20176;-73
2022/01/04 08:25:26;;;;;;;11.73;7.55;;;;;;;9.69;65.20;98519.75;5000574;28;20421;-72
2022/01/04 08:27:53;;;;;;;12.43;7.25;;;;;;;9.70;65.32;98515.28;5000237;28;20062;-74
2022/01/04 08:30:21;;;;;;;18.13;8.95;;;;;;;9.74;65.06;98514.00;5000719;28;20056;-74
2022/01/04 08:32:51;;;;;;;16.73;8.15;;;;;;;9.81;64.90;98507.16;4947983;28;20046;-72
2022/01/04 08:35:18;;;;;;;11.07;6.38;;;;;;;9.83;64.82;98502.59;5000832;28;20051;-74
2022/01/04 08:37:47;;;;;;;10.55;6.82;;;;;;;9.80;65.17;98494.16;4997040;28;20049;-74
2022/01/04 08:40:14;;;;;;;14.57;8.88;;;;;;;9.74;65.04;98496.41;4998511;28;20049;-72
2022/01/04 08:42:42;;;;;;;14.70;9.55;;;;;;;9.74;65.06;98485.00;4996477;28;20072;-71
2022/01/04 08:45:09;;;;;;;16.58;8.88;;;;;;;9.80;64.94;98483.59;4995617;28;20056;-71
2022/01/04 08:47:37;;;;;;;16.10;9.15;;;;;;;9.85;64.92;98479.53;4994115;28;20320;-73
2022/01/04 08:50:06;;;;;;;15.85;10.45;;;;;;;9.88;64.74;98463.38;4997225;28;20061;-74
2022/01/04 08:52:33;;;;;;;19.15;10.68;;;;;;;9.91;64.50;98475.47;4993000;28;21415;-74
2022/01/04 08:55:02;;;;;;;18.98;10.05;;;;;;;9.92;64.60;98483.22;4997833;28;20116;-73
2022/01/04 08:57:30;;;;;;;16.70;9.40;;;;;;;9.90;64.63;98472.00;4999832;28;20416;-73
2022/01/04 08:59:57;;;;;;;15.45;10.82;;;;;;;9.82;64.70;98471.09;4999712;28;20057;-72
2022/01/04 09:02:24;;;;;;;20.08;10.43;;;;;;;9.72;64.95;98456.19;4999879;28;20045;-74
2022/01/04 09:04:51;;;;;;;16.52;9.43;;;;;;;9.72;64.92;98458.81;4999765;28;20509;-74
2022/01/04 09:07:19;;;;;;;15.75;10.82;;;;;;;9.72;65.17;98456.19;5001343;28;20049;-72
2022/01/04 09:09:46;;;;;;;18.00;9.82;;;;;;;9.75;65.06;98461.13;5000511;28;20126;-72
2022/01/04 09:12:15;;;;;;;18.38;10.25;;;;;;;9.79;65.09;98456.38;5000840;28;20124;-73
2022/01/04 09:14:55;;;;;;;15.55;9.45;;;;;;;9.87;65.05;98455.66;5000134;28;20068;-72
2022/01/04 09:20:11;;;;;;;17.33;9.73;;;;;;;10.03;64.69;98439.97;4999586;28;20640;-70
2022/01/04 09:22:38;;;;;;;13.18;9.82;;;;;;;10.11;64.68;98445.28;4996739;28;20249;-72
2022/01/04 09:25:06;;;;;;;15.13;9.82;;;;;;;10.19;64.70;98444.56;4999391;28;20136;-75
2022/01/04 09:27:35;;;;;;;17.27;10.55;;;;;;;10.22;64.48;98440.75;4998852;28;20128;-72
2022/01/04 09:30:04;;;;;;;16.83;9.90;;;;;;;10.26;64.46;98427.13;4999235;28;20052;-75
2022/01/04 09:32:32;;;;;;;17.73;11.07;;;;;;;10.40;64.28;98414.38;4999035;28;20046;-74
2022/01/04 09:35:00;;;;;;;17.17;9.77;;;;;;;10.51;64.16;98404.38;4999376;28;20153;-71
2022/01/04 09:37:27;;;;;;;18.15;10.75;;;;;;;10.58;63.81;98403.75;4998738;28;20119;-72
2022/01/04 09:39:54;;;;;;;11.75;8.32;;;;;;;10.62;63.91;98394.53;4997987;28;20591;-73
2022/01/04 09:42:22;;;;;;;16.63;10.32;;;;;;;10.67;63.76;98395.72;4998311;28;20046;-73
2022/01/04 09:44:52;;;;;;;18.38;10.70;;;;;;;10.75;63.61;98384.38;4997511;28;20125;-72
2022/01/04 09:47:19;;;;;;;18.45;10.48;;;;;;;10.81;63.51;98391.66;4998066;28;20618;-73
2022/01/04 09:49:46;;;;;;;16.90;9.43;;;;;;;10.80;63.45;98392.63;5013153;28;20673;-73
2022/01/04 09:52:19;;;;;;;14.75;9.43;;;;;;;10.77;63.43;98392.97;5017236;28;20125;-72
2022/01/04 09:54:48;;;;;;;13.48;8.10;;;;;;;10.77;63.41;98390.31;5022255;28;20077;-73
2022/01/04 09:57:15;;;;;;;13.38;9.23;;;;;;;10.74;63.52;98385.34;5025976;28;20721;-73
2022/01/04 09:59:42;;;;;;;14.85;9.65;;;;;;;10.79;63.41;98379.59;5016858;28;20561;-74
2022/01/04 10:02:16;;;;;;;19.80;10.75;;;;;;;10.77;63.35;98371.84;4999522;28;20056;-74
2022/01/04 10:04:45;;;;;;;16.80;9.63;;;;;;;10.71;63.49;98375.09;4996412;28;20046;-77
2022/01/04 10:07:16;;;;;;;16.73;9.75;;;;;;;10.71;63.44;98359.25;5001494;28;20711;-76
2022/01/04 10:09:46;;;;;;;19.52;10.07;;;;;;;10.66;63.36;98361.53;4997584;28;20077;-78
2022/01/04 10:12:14;;;;;;;14.10;9.15;;;;;;;10.60;63.36;98341.06;5002192;28;20050;-76
2022/01/04 10:14:43;;;;;;;17.88;9.85;;;;;;;10.64;63.44;98350.31;4999596;28;20073;-74
2022/01/04 10:17:13;;;;;;;16.98;9.52;;;;;;;10.66;63.26;98345.69;5000514;28;20679;-73
2022/01/04 10:19:45;;;;;;;14.18;9.73;;;;;;;10.68;63.32;98344.56;4997877;28;20042;-75
2022/01/04 10:22:19;;;;;;;13.52;8.85;;;;;;;10.70;63.12;98344.41;4995196;28;20129;-70
2022/01/04 10:24:52;;;;;;;16.02;9.23;;;;;;;10.67;63.16;98342.91;4988711;28;20052;-71
2022/01/04 10:27:24;;;;;;;14.68;9.23;;;;;;;10.66;63.10;98343.06;4990521;28;20183;-73
2022/01/04 10:30:09;;;;;;;15.15;10.35;;;;;;;10.69;63.26;98334.81;4990276;28;20069;-73
2022/01/04 10:32:46;;;;;;;15.45;9.88;;;;;;;10.68;63.08;98338.47;4998287;28;20128;-76
2022/01/04 10:35:25;;;;;;;16.60;10.20;;;;;;;10.71;63.22;98340.78;5001196;28;20269;-77
2022/01/04 10:37:52;;;;;;;19.25;10.13;;;;;;;10.73;62.93;98332.69;4999080;28;20073;-76
2022/01/04 10:40:20;;;;;;;16.23;10.82;;;;;;;10.72;63.00;98326.59;4998378;28;20073;-72
2022/01/04 10:42:47;;;;;;;16.85;10.52;;;;;;;10.76;62.97;98321.81;4996448;28;20616;-72
2022/01/04 10:45:26;;;;;;;16.63;9.43;;;;;;;10.80;62.96;98312.59;4996786;28;20048;-73
2022/01/04 10:47:53;;;;;;;18.45;11.00;;;;;;;10.81;62.86;98311.59;5010232;28;20160;-73
2022/01/04 10:50:34;;;;;;;17.02;11.07;;;;;;;10.81;63.23;98314.25;5021237;28;20676;-75
2022/01/04 10:53:02;;;;;;;15.48;11.07;;;;;;;10.79;62.87;98305.66;5019640;28;20577;-74
2022/01/04 10:55:32;;;;;;;15.68;8.90;;;;;;;10.73;63.05;98299.19;5022673;28;20666;-74
2022/01/04 10:58:00;;;;;;;14.70;10.55;;;;;;;10.69;63.02;98296.03;5021291;28;20048;-75
2022/01/04 11:00:28;;;;;;;12.88;9.13;;;;;;;10.68;63.08;98286.47;5030840;28;20025;-74
2022/01/04 11:02:57;;;;;;;16.30;9.00;;;;;;;10.74;63.04;98286.84;5042156;28;20154;-73
2022/01/04 11:05:26;;;;;;;9.40;7.35;;;;;;;10.73;62.80;98280.69;5039592;28;20101;-74
2022/01/04 11:08:03;;;;;;;16.15;8.10;;;;;;;10.72;63.08;98273.78;5041831;28;20048;-72
2022/01/04 11:10:32;;;;;;;19.33;10.25;;;;;;;10.71;63.09;98267.69;5036516;28;20096;-74
2022/01/04 11:13:00;;;;;;;13.85;7.97;;;;;;;10.70;63.00;98268.66;5015856;28;20053;-73
2022/01/04 11:15:28;;;;;;;14.23;10.10;;;;;;;10.69;63.06;98263.53;5007465;28;20101;-72
2022/01/04 11:17:57;;;;;;;18.80;10.85;;;;;;;10.68;63.26;98251.34;5009073;28;20052;-72
2022/01/04 11:20:24;;;;;;;17.63;11.15;;;;;;;10.76;63.20;98255.81;5011198;28;20046;-72
2022/01/04 11:22:52;;;;;;;14.07;8.38;;;;;;;10.79;63.17;98242.28;5007012;28;20050;-73
2022/01/04 11:25:22;;;;;;;13.02;7.28;;;;;;;10.85;63.02;98231.88;5000570;28;20054;-73
2022/01/04 11:27:49;;;;;;;15.65;8.65;;;;;;;10.91;62.83;98230.41;4999595;28;20054;-72
2022/01/04 11:30:22;;;;;;;14.02;8.38;;;;;;;10.97;62.90;98221.84;5001836;28;20050;-71
2022/01/04 11:32:55;;;;;;;12.45;8.18;;;;;;;11.00;62.70;98223.31;4980754;28;20120;-73
2022/01/04 11:35:26;;;;;;;16.33;7.90;;;;;;;10.97;62.88;98218.38;4990770;28;20561;-74
2022/01/04 11:37:55;;;;;;;21.60;8.23;;;;;;;11.01;62.83;98214.41;4999614;28;20127;-71
2022/01/04 11:40:31;;;;;;;15.15;9.50;;;;;;;11.00;62.95;98208.31;4999394;28;20081;-74
2022/01/04 11:42:58;;;;;;;;;;;;;;;11.29;62.41;98199.88;4968264;28;20046;-72